createdAt,value
2023-04-16T00:04:48.195Z,22.57
2023-04-16T00:09:49.620Z,22.47
2023-04-16T00:14:51.004Z,22.55
2023-04-16T00:19:52.432Z,22.57
2023-04-16T00:24:53.829Z,22.54
2023-04-16T00:29:55.302Z,22.58
2023-04-16T00:34:56.668Z,22.55
2023-04-16T00:39:58.091Z,22.49
2023-04-16T00:44:59.453Z,22.53
2023-04-16T00:50:00.872Z,22.57
2023-04-16T00:55:02.475Z,22.53
2023-04-16T01:00:05.028Z,22.55
2023-04-16T01:05:06.588Z,22.59
2023-04-16T01:10:08.202Z,22.51
2023-04-16T01:15:11.165Z,22.49
2023-04-16T01:20:12.549Z,22.57
2023-04-16T01:25:15.276Z,22.47
2023-04-16T01:30:16.661Z,22.48
2023-04-16T01:35:18.277Z,22.49
2023-04-16T01:40:19.753Z,22.53
2023-04-16T01:45:21.766Z,22.51
2023-04-16T01:50:23.221Z,22.52
2023-04-16T01:55:24.727Z,22.56
2023-04-16T02:00:26.131Z,22.47
2023-04-16T02:05:27.595Z,22.51
2023-04-16T02:10:28.971Z,22.57
2023-04-16T02:15:30.387Z,22.50
2023-04-16T02:20:31.765Z,22.51
2023-04-16T02:25:33.189Z,22.52
2023-04-16T02:30:37.743Z,22.51
2023-04-16T02:35:39.444Z,22.49
2023-04-16T02:40:41.055Z,22.53
2023-04-16T02:45:42.529Z,22.54
2023-04-16T02:50:44.053Z,22.51
2023-04-16T02:55:54.717Z,22.53
2023-04-16T03:00:56.167Z,22.56
2023-04-16T03:05:57.570Z,22.48
2023-04-16T03:10:58.946Z,22.54
2023-04-16T03:16:00.355Z,22.55
2023-04-16T03:21:01.827Z,22.47
2023-04-16T03:26:03.289Z,22.46
2023-04-16T03:31:04.747Z,22.55
2023-04-16T03:36:06.538Z,22.48
2023-04-16T03:41:07.947Z,22.47
2023-04-16T03:46:09.337Z,22.52
2023-04-16T03:51:10.932Z,22.51
2023-04-16T03:56:12.334Z,22.51
2023-04-16T04:01:13.731Z,22.51
2023-04-16T04:06:15.147Z,22.52
2023-04-16T04:11:16.528Z,22.50
2023-04-16T04:16:18.015Z,22.48
2023-04-16T04:21:19.465Z,22.50
2023-04-16T04:26:21.011Z,22.48
2023-04-16T04:31:22.451Z,22.47
2023-04-16T04:36:23.904Z,22.52
2023-04-16T04:41:26.813Z,22.53
2023-04-16T04:46:28.222Z,22.46
2023-04-16T04:51:29.637Z,22.46
2023-04-16T04:56:31.052Z,22.52
2023-04-16T05:01:32.477Z,22.44
2023-04-16T05:06:36.452Z,22.49
2023-04-16T05:11:38.629Z,22.50
2023-04-16T05:16:40.174Z,22.51
2023-04-16T05:21:41.562Z,22.51
2023-04-16T05:26:42.949Z,22.51
2023-04-16T05:31:44.330Z,22.51
2023-04-16T05:36:45.906Z,22.48
2023-04-16T05:41:47.273Z,22.47
2023-04-16T05:46:48.644Z,22.51
2023-04-16T05:51:50.988Z,22.44
2023-04-16T05:56:52.541Z,22.49
2023-04-16T06:01:53.925Z,22.53
2023-04-16T06:06:55.458Z,22.52
2023-04-16T06:11:57.820Z,22.51
2023-04-16T06:16:59.186Z,22.53
2023-04-16T06:22:00.581Z,22.52
2023-04-16T06:27:02.720Z,22.53
2023-04-16T06:32:04.279Z,22.54
2023-04-16T06:37:06.423Z,22.57
2023-04-16T06:42:09.204Z,22.56
2023-04-16T06:47:10.613Z,22.54
2023-04-16T06:52:12.040Z,22.56
2023-04-16T06:57:13.533Z,22.54
2023-04-16T07:02:15.214Z,22.54
2023-04-16T07:07:16.646Z,22.55
2023-04-16T07:12:18.029Z,22.59
2023-04-16T07:17:19.535Z,22.55
2023-04-16T07:22:21.174Z,22.58
2023-04-16T07:27:22.582Z,22.64
2023-04-16T07:32:24.115Z,22.54
2023-04-16T07:37:25.848Z,22.58
2023-04-16T07:42:27.887Z,22.64
2023-04-16T07:47:29.276Z,22.58
2023-04-16T07:52:30.695Z,22.60
2023-04-16T07:57:32.148Z,22.66
2023-04-16T08:02:33.679Z,22.64
2023-04-16T08:07:35.294Z,22.61
2023-04-16T08:12:36.692Z,22.68
2023-04-16T08:17:38.632Z,22.61
2023-04-16T08:22:40.151Z,22.62
2023-04-16T08:27:41.530Z,22.71
2023-04-16T08:32:44.184Z,22.66
2023-04-16T08:37:45.929Z,22.64
2023-04-16T08:42:53.475Z,22.71
2023-04-16T08:47:54.911Z,22.63
2023-04-16T08:53:00.828Z,22.66
2023-04-16T08:58:03.217Z,22.73
2023-04-16T09:03:04.683Z,22.69
2023-04-16T09:08:06.595Z,22.66
2023-04-16T09:13:09.259Z,22.71
2023-04-16T09:18:11.946Z,22.70
2023-04-16T09:23:13.325Z,22.64
2023-04-16T09:28:44.550Z,22.68
2023-04-16T09:34:03.130Z,22.73
2023-04-16T09:39:04.534Z,22.69
2023-04-16T09:44:06.042Z,22.66
2023-04-16T09:49:13.871Z,22.74
2023-04-16T09:54:15.986Z,22.70
2023-04-16T09:59:18.368Z,22.68
2023-04-16T10:04:20.391Z,22.73
2023-04-16T10:09:21.822Z,22.74
2023-04-16T10:14:23.195Z,22.67
2023-04-16T10:19:27.774Z,22.68
2023-04-16T10:24:29.908Z,22.74
2023-04-16T10:29:31.501Z,22.66
2023-04-16T10:34:32.877Z,22.65
2023-04-16T10:39:37.188Z,22.72
2023-04-16T10:44:40.296Z,22.71
2023-04-16T10:49:43.617Z,22.68
2023-04-16T10:54:45.057Z,22.72
2023-04-16T10:59:46.995Z,22.74
2023-04-16T11:04:48.981Z,22.71
2023-04-16T11:09:57.514Z,22.68
2023-04-16T11:15:00.030Z,22.75
2023-04-16T11:20:01.497Z,22.73
2023-04-16T11:25:03.028Z,22.69
2023-04-16T11:30:05.794Z,22.69
2023-04-16T11:35:16.996Z,22.70
2023-04-16T11:40:18.387Z,22.66
2023-04-16T11:45:19.762Z,22.67
2023-04-16T11:50:25.337Z,22.72
2023-04-16T11:55:26.738Z,22.74
2023-04-16T12:00:34.814Z,22.68
2023-04-16T12:05:39.863Z,22.67
2023-04-16T12:10:54.219Z,22.72
2023-04-16T12:15:56.569Z,22.69
2023-04-16T12:20:58.083Z,22.65
2023-04-16T12:26:02.044Z,22.63
2023-04-16T12:31:03.746Z,22.72
2023-04-16T12:36:20.497Z,22.67
2023-04-16T12:41:21.874Z,22.54
2023-04-16T12:46:23.312Z,22.67
2023-04-16T12:51:24.711Z,22.67
2023-04-16T12:56:26.137Z,22.61
2023-04-16T13:01:27.582Z,22.65
2023-04-16T13:06:29.754Z,22.67
2023-04-16T13:11:31.141Z,22.70
2023-04-16T13:16:32.527Z,22.63
2023-04-16T13:21:34.184Z,22.65
2023-04-16T13:26:35.677Z,22.70
2023-04-16T13:31:37.170Z,22.69
2023-04-16T13:36:38.792Z,22.60
2023-04-16T13:41:40.323Z,22.60
2023-04-16T13:46:47.320Z,22.66
2023-04-16T13:51:49.078Z,22.64
2023-04-16T13:56:51.079Z,22.57
2023-04-16T14:01:52.483Z,22.60
2023-04-16T14:06:54.216Z,22.62
2023-04-16T14:11:55.717Z,22.62
2023-04-16T14:16:58.179Z,22.57
2023-04-16T14:21:59.601Z,22.58
2023-04-16T14:27:00.967Z,22.65
2023-04-16T14:32:02.632Z,22.67
2023-04-16T14:37:04.140Z,22.59
2023-04-16T14:42:06.402Z,22.61
2023-04-16T14:47:08.412Z,22.65
2023-04-16T14:52:09.826Z,22.58
2023-04-16T14:57:11.234Z,22.56
2023-04-16T15:02:12.739Z,22.61
2023-04-16T15:07:14.202Z,22.63
2023-04-16T15:12:17.948Z,22.58
2023-04-16T15:17:20.760Z,22.55
2023-04-16T15:22:22.146Z,22.60
2023-04-16T15:27:23.522Z,22.68
2023-04-16T15:32:25.164Z,22.54
2023-04-16T15:37:26.618Z,22.58
2023-04-16T15:42:28.016Z,22.62
2023-04-16T15:47:29.429Z,22.60
2023-04-16T15:52:31.187Z,22.53
2023-04-16T15:57:32.778Z,22.53
2023-04-16T16:02:34.544Z,22.57
2023-04-16T16:07:36.219Z,22.53
2023-04-16T16:12:37.715Z,22.54
2023-04-16T16:17:40.414Z,22.47
2023-04-16T16:22:45.050Z,22.50
2023-04-16T16:27:46.462Z,22.51
2023-04-16T16:32:47.892Z,22.45
2023-04-16T16:37:49.308Z,22.52
2023-04-16T16:42:50.707Z,22.42
2023-04-16T16:47:52.140Z,22.47
2023-04-16T16:52:53.590Z,22.44
2023-04-16T16:57:55.049Z,22.51
2023-04-16T17:02:56.627Z,22.45
2023-04-16T17:07:58.186Z,22.45
2023-04-16T17:12:59.554Z,22.46
2023-04-16T17:18:01.007Z,22.45
2023-04-16T17:23:02.886Z,22.46
2023-04-16T17:28:04.882Z,22.41
2023-04-16T17:33:06.294Z,22.48
2023-04-16T17:38:07.836Z,22.44
2023-04-16T17:43:09.218Z,22.44
2023-04-16T17:48:10.864Z,22.41
2023-04-16T17:53:12.277Z,22.40
2023-04-16T17:58:13.882Z,22.40
2023-04-16T18:03:15.654Z,22.47
2023-04-16T18:08:17.151Z,22.41
2023-04-16T18:13:18.514Z,22.45
2023-04-16T18:18:21.140Z,22.45
2023-04-16T18:23:22.526Z,22.43
2023-04-16T18:28:24.628Z,22.37
2023-04-16T18:33:52.318Z,22.43
2023-04-16T18:39:00.255Z,22.45
2023-04-16T18:44:03.577Z,22.41
2023-04-16T18:49:05.324Z,22.45
2023-04-16T18:54:06.719Z,22.42
2023-04-16T18:59:08.322Z,22.43
2023-04-16T19:04:09.832Z,22.44
2023-04-16T19:09:11.743Z,22.45
2023-04-16T19:14:13.240Z,22.45
2023-04-16T19:19:14.698Z,22.45
2023-04-16T19:24:16.114Z,22.43
2023-04-16T19:29:17.988Z,22.43
2023-04-16T19:34:19.368Z,22.46
2023-04-16T19:39:20.860Z,22.45
2023-04-16T19:44:23.077Z,22.45
2023-04-16T19:49:27.269Z,22.47
2023-04-16T19:54:28.791Z,22.42
2023-04-16T19:59:32.082Z,22.45
2023-04-16T20:04:34.410Z,22.45
2023-04-16T20:09:35.832Z,22.36
2023-04-16T20:14:37.198Z,22.43
2023-04-16T20:19:38.627Z,22.47
2023-04-16T20:24:40.022Z,22.45
2023-04-16T20:29:41.673Z,22.44
2023-04-16T20:34:43.093Z,22.43
2023-04-16T20:39:46.450Z,22.49
2023-04-16T20:44:50.100Z,22.44
2023-04-16T20:49:52.610Z,22.45
2023-04-16T20:54:54.125Z,22.45
2023-04-16T20:59:56.260Z,22.45
2023-04-16T21:04:57.743Z,22.43
2023-04-16T21:10:00.991Z,22.45
2023-04-16T21:15:03.156Z,22.48
2023-04-16T21:20:06.836Z,22.41
2023-04-16T21:25:08.742Z,22.45
2023-04-16T21:30:10.434Z,22.48
2023-04-16T21:35:11.882Z,22.41
2023-04-16T21:40:13.356Z,22.45
2023-04-16T21:45:14.772Z,22.39
2023-04-16T21:50:16.198Z,22.45
2023-04-16T21:55:17.649Z,22.40
2023-04-16T22:00:19.185Z,22.43
2023-04-16T22:05:20.926Z,22.47
2023-04-16T22:10:22.496Z,22.42
2023-04-16T22:15:23.863Z,22.43
2023-04-16T22:20:25.232Z,22.41
2023-04-16T22:25:26.608Z,22.40
2023-04-16T22:30:28.024Z,22.45
2023-04-16T22:35:29.554Z,22.43
2023-04-16T22:40:31.701Z,22.46
2023-04-16T22:45:33.089Z,22.41
2023-04-16T22:50:34.475Z,22.44
2023-04-16T22:55:36.480Z,22.45
2023-04-16T23:00:37.993Z,22.38
2023-04-16T23:05:39.362Z,22.42
2023-04-16T23:10:40.768Z,22.46
2023-04-16T23:15:43.547Z,22.43
2023-04-16T23:20:44.970Z,22.43
2023-04-16T23:25:46.367Z,22.41
2023-04-16T23:30:51.322Z,22.46
2023-04-16T23:35:52.741Z,22.43
2023-04-16T23:40:54.115Z,22.45
2023-04-16T23:45:55.560Z,22.48
2023-04-16T23:50:56.969Z,22.43
2023-04-16T23:55:58.380Z,22.45
